sensor_id;sensor_type;location;lat;lon;timestamp;P1;durP1;ratioP1;P2;durP2;ratioP2
3769;SDS011;1900;48.890;9.190;2023-02-01T00:01:41;4.97;;;3.80;;
3769;SDS011;1900;48.890;9.190;2023-02-01T00:04:07;4.40;;;3.73;;
3769;SDS011;1900;48.890;9.190;2023-02-01T00:06:33;5.70;;;3.80;;
3769;SDS011;1900;48.890;9.190;2023-02-01T00:08:58;8.43;;;5.40;;
3769;SDS011;1900;48.890;9.190;2023-02-01T00:11:24;8.90;;;4.57;;
3769;SDS011;1900;48.890;9.190;2023-02-01T00:13:50;5.80;;;4.50;;
3769;SDS011;1900;48.890;9.190;2023-02-01T00:16:18;8.27;;;4.57;;
3769;SDS011;1900;48.890;9.190;2023-02-01T00:18:47;6.10;;;4.70;;
3769;SDS011;1900;48.890;9.190;2023-02-01T00:21:15;6.40;;;4.87;;
3769;SDS011;1900;48.890;9.190;2023-02-01T00:23:42;8.20;;;5.40;;
3769;SDS011;1900;48.890;9.190;2023-02-01T00:26:11;5.97;;;4.73;;
3769;SDS011;1900;48.890;9.190;2023-02-01T00:28:40;7.33;;;5.33;;
3769;SDS011;1900;48.890;9.190;2023-02-01T00:31:05;7.70;;;4.70;;
3769;SDS011;1900;48.890;9.190;2023-02-01T00:33:31;4.13;;;3.27;;
3769;SDS011;1900;48.890;9.190;2023-02-01T00:35:58;6.60;;;4.40;;
3769;SDS011;1900;48.890;9.190;2023-02-01T00:38:25;6.10;;;4.10;;
3769;SDS011;1900;48.890;9.190;2023-02-01T00:40:52;7.80;;;3.70;;
3769;SDS011;1900;48.890;9.190;2023-02-01T00:43:17;3.97;;;3.20;;
3769;SDS011;1900;48.890;9.190;2023-02-01T00:45:44;5.47;;;3.53;;
3769;SDS011;1900;48.890;9.190;2023-02-01T00:48:11;5.07;;;3.53;;
3769;SDS011;1900;48.890;9.190;2023-02-01T00:50:40;3.97;;;3.10;;
3769;SDS011;1900;48.890;9.190;2023-02-01T00:53:10;3.83;;;2.83;;
3769;SDS011;1900;48.890;9.190;2023-02-01T00:55:36;4.60;;;3.47;;
3769;SDS011;1900;48.890;9.190;2023-02-01T00:58:02;4.40;;;2.90;;
3769;SDS011;1900;48.890;9.190;2023-02-01T01:00:31;5.13;;;3.27;;
3769;SDS011;1900;48.890;9.190;2023-02-01T01:02:57;5.00;;;3.03;;
3769;SDS011;1900;48.890;9.190;2023-02-01T01:05:23;4.03;;;3.40;;
3769;SDS011;1900;48.890;9.190;2023-02-01T01:07:49;6.43;;;3.57;;
3769;SDS011;1900;48.890;9.190;2023-02-01T01:10:15;3.93;;;3.27;;
3769;SDS011;1900;48.890;9.190;2023-02-01T01:12:40;4.73;;;3.80;;
3769;SDS011;1900;48.890;9.190;2023-02-01T01:15:06;9.63;;;3.70;;
3769;SDS011;1900;48.890;9.190;2023-02-01T01:17:33;3.60;;;2.87;;
3769;SDS011;1900;48.890;9.190;2023-02-01T01:19:58;5.60;;;3.70;;
3769;SDS011;1900;48.890;9.190;2023-02-01T01:22:24;5.20;;;3.73;;
3769;SDS011;1900;48.890;9.190;2023-02-01T01:24:50;4.63;;;3.23;;
3769;SDS011;1900;48.890;9.190;2023-02-01T01:27:15;4.13;;;2.80;;
3769;SDS011;1900;48.890;9.190;2023-02-01T01:29:47;3.80;;;2.77;;
3769;SDS011;1900;48.890;9.190;2023-02-01T01:32:13;5.20;;;3.53;;
3769;SDS011;1900;48.890;9.190;2023-02-01T01:34:39;5.37;;;3.37;;
3769;SDS011;1900;48.890;9.190;2023-02-01T01:37:05;3.23;;;2.60;;
3769;SDS011;1900;48.890;9.190;2023-02-01T01:39:30;7.00;;;3.53;;
3769;SDS011;1900;48.890;9.190;2023-02-01T01:41:56;5.40;;;3.67;;
3769;SDS011;1900;48.890;9.190;2023-02-01T01:47:24;5.77;;;3.90;;
3769;SDS011;1900;48.890;9.190;2023-02-01T01:49:51;5.53;;;3.43;;
3769;SDS011;1900;48.890;9.190;2023-02-01T01:52:18;2.40;;;2.20;;
3769;SDS011;1900;48.890;9.190;2023-02-01T01:54:48;4.40;;;2.83;;
3769;SDS011;1900;48.890;9.190;2023-02-01T01:57:32;4.10;;;3.00;;
3769;SDS011;1900;48.890;9.190;2023-02-01T02:02:38;8.43;;;4.47;;
3769;SDS011;1900;48.890;9.190;2023-02-01T02:05:06;5.20;;;3.70;;
3769;SDS011;1900;48.890;9.190;2023-02-01T02:07:34;5.10;;;3.90;;
3769;SDS011;1900;48.890;9.190;2023-02-01T02:10:06;4.20;;;2.93;;
3769;SDS011;1900;48.890;9.190;2023-02-01T02:12:37;3.63;;;3.23;;
3769;SDS011;1900;48.890;9.190;2023-02-01T02:15:06;4.90;;;3.70;;
3769;SDS011;1900;48.890;9.190;2023-02-01T02:17:36;3.00;;;2.70;;
3769;SDS011;1900;48.890;9.190;2023-02-01T02:34:32;3.73;;;2.90;;
3769;SDS011;1900;48.890;9.190;2023-02-01T02:37:24;5.40;;;3.70;;
3769;SDS011;1900;48.890;9.190;2023-02-01T02:42:57;4.23;;;3.03;;
3769;SDS011;1900;48.890;9.190;2023-02-01T02:52:12;3.73;;;2.70;;
3769;SDS011;1900;48.890;9.190;2023-02-01T02:55:00;4.50;;;2.77;;
3769;SDS011;1900;48.890;9.190;2023-02-01T02:57:47;5.17;;;2.73;;
3769;SDS011;1900;48.890;9.190;2023-02-01T03:00:33;3.33;;;2.50;;
3769;SDS011;1900;48.890;9.190;2023-02-01T03:03:20;4.00;;;3.33;;
3769;SDS011;1900;48.890;9.190;2023-02-01T03:06:08;7.27;;;5.10;;
3769;SDS011;1900;48.890;9.190;2023-02-01T03:08:41;7.60;;;4.73;;
3769;SDS011;1900;48.890;9.190;2023-02-01T03:11:11;5.93;;;3.43;;
3769;SDS011;1900;48.890;9.190;2023-02-01T03:13:56;4.13;;;3.20;;
3769;SDS011;1900;48.890;9.190;2023-02-01T03:16:31;4.10;;;2.80;;
3769;SDS011;1900;48.890;9.190;2023-02-01T03:19:08;3.30;;;2.77;;
3769;SDS011;1900;48.890;9.190;2023-02-01T03:21:40;4.30;;;2.67;;
3769;SDS011;1900;48.890;9.190;2023-02-01T03:24:20;4.30;;;2.43;;
3769;SDS011;1900;48.890;9.190;2023-02-01T03:29:40;3.00;;;2.40;;
3769;SDS011;1900;48.890;9.190;2023-02-01T03:32:13;3.23;;;2.20;;
3769;SDS011;1900;48.890;9.190;2023-02-01T03:34:39;2.87;;;2.40;;
3769;SDS011;1900;48.890;9.190;2023-02-01T03:37:09;2.87;;;2.10;;
3769;SDS011;1900;48.890;9.190;2023-02-01T03:42:35;2.87;;;2.57;;
3769;SDS011;1900;48.890;9.190;2023-02-01T03:45:08;3.93;;;3.00;;
3769;SDS011;1900;48.890;9.190;2023-02-01T03:47:39;4.47;;;2.80;;
3769;SDS011;1900;48.890;9.190;2023-02-01T03:50:09;3.80;;;3.10;;
3769;SDS011;1900;48.890;9.190;2023-02-01T03:52:40;3.67;;;3.10;;
3769;SDS011;1900;48.890;9.190;2023-02-01T03:55:16;7.50;;;3.60;;
3769;SDS011;1900;48.890;9.190;2023-02-01T03:57:47;5.90;;;3.60;;
3769;SDS011;1900;48.890;9.190;2023-02-01T04:00:23;3.10;;;2.53;;
3769;SDS011;1900;48.890;9.190;2023-02-01T04:02:50;3.37;;;3.07;;
3769;SDS011;1900;48.890;9.190;2023-02-01T04:05:17;3.00;;;2.40;;
3769;SDS011;1900;48.890;9.190;2023-02-01T04:07:51;3.10;;;2.70;;
3769;SDS011;1900;48.890;9.190;2023-02-01T04:10:17;2.93;;;2.33;;
3769;SDS011;1900;48.890;9.190;2023-02-01T04:12:42;5.17;;;2.73;;
3769;SDS011;1900;48.890;9.190;2023-02-01T04:15:08;6.30;;;3.90;;
3769;SDS011;1900;48.890;9.190;2023-02-01T04:17:34;3.67;;;3.23;;
3769;SDS011;1900;48.890;9.190;2023-02-01T04:20:00;5.43;;;3.70;;
3769;SDS011;1900;48.890;9.190;2023-02-01T04:22:26;5.27;;;3.73;;
3769;SDS011;1900;48.890;9.190;2023-02-01T04:24:52;5.53;;;3.63;;
3769;SDS011;1900;48.890;9.190;2023-02-01T04:27:17;4.97;;;3.37;;
3769;SDS011;1900;48.890;9.190;2023-02-01T04:29:43;3.30;;;2.57;;
3769;SDS011;1900;48.890;9.190;2023-02-01T04:32:10;4.87;;;3.17;;
3769;SDS011;1900;48.890;9.190;2023-02-01T04:34:36;5.03;;;3.03;;
3769;SDS011;1900;48.890;9.190;2023-02-01T04:37:02;2.60;;;2.40;;
3769;SDS011;1900;48.890;9.190;2023-02-01T04:39:27;2.53;;;2.30;;
3769;SDS011;1900;48.890;9.190;2023-02-01T04:41:53;3.40;;;2.37;;
3769;SDS011;1900;48.890;9.190;2023-02-01T04:44:19;3.10;;;2.10;;
3769;SDS011;1900;48.890;9.190;2023-02-01T04:46:45;2.60;;;2.07;;
3769;SDS011;1900;48.890;9.190;2023-02-01T04:49:12;2.30;;;2.00;;
3769;SDS011;1900;48.890;9.190;2023-02-01T04:51:39;3.07;;;2.10;;
3769;SDS011;1900;48.890;9.190;2023-02-01T04:54:05;4.70;;;2.50;;
3769;SDS011;1900;48.890;9.190;2023-02-01T04:56:31;2.17;;;1.90;;
3769;SDS011;1900;48.890;9.190;2023-02-01T04:58:57;4.17;;;2.30;;
3769;SDS011;1900;48.890;9.190;2023-02-01T05:01:23;3.50;;;2.70;;
3769;SDS011;1900;48.890;9.190;2023-02-01T05:03:49;3.40;;;2.20;;
3769;SDS011;1900;48.890;9.190;2023-02-01T05:06:15;3.00;;;2.10;;
3769;SDS011;1900;48.890;9.190;2023-02-01T05:08:42;2.70;;;2.50;;
3769;SDS011;1900;48.890;9.190;2023-02-01T05:11:08;4.37;;;2.40;;
3769;SDS011;1900;48.890;9.190;2023-02-01T05:13:53;2.53;;;2.30;;
3769;SDS011;1900;48.890;9.190;2023-02-01T05:16:19;3.23;;;2.20;;
3769;SDS011;1900;48.890;9.190;2023-02-01T05:18:45;2.93;;;2.50;;
3769;SDS011;1900;48.890;9.190;2023-02-01T05:21:10;3.23;;;2.50;;
3769;SDS011;1900;48.890;9.190;2023-02-01T05:23:36;2.10;;;1.97;;
3769;SDS011;1900;48.890;9.190;2023-02-01T05:26:22;2.40;;;2.17;;
3769;SDS011;1900;48.890;9.190;2023-02-01T05:28:48;2.40;;;1.87;;
3769;SDS011;1900;48.890;9.190;2023-02-01T05:31:13;3.00;;;2.27;;
3769;SDS011;1900;48.890;9.190;2023-02-01T05:33:39;2.90;;;2.20;;
3769;SDS011;1900;48.890;9.190;2023-02-01T05:36:05;1.97;;;1.83;;
3769;SDS011;1900;48.890;9.190;2023-02-01T05:38:30;9.47;;;2.70;;
3769;SDS011;1900;48.890;9.190;2023-02-01T05:40:56;3.57;;;2.47;;
3769;SDS011;1900;48.890;9.190;2023-02-01T05:43:22;2.83;;;2.17;;
3769;SDS011;1900;48.890;9.190;2023-02-01T05:45:47;2.30;;;2.10;;
3769;SDS011;1900;48.890;9.190;2023-02-01T05:48:13;2.73;;;1.93;;
3769;SDS011;1900;48.890;9.190;2023-02-01T05:50:39;4.57;;;2.70;;
3769;SDS011;1900;48.890;9.190;2023-02-01T05:53:07;3.27;;;1.97;;
3769;SDS011;1900;48.890;9.190;2023-02-01T05:55:33;1.60;;;1.50;;
3769;SDS011;1900;48.890;9.190;2023-02-01T05:57:59;2.30;;;1.90;;
3769;SDS011;1900;48.890;9.190;2023-02-01T06:00:24;2.70;;;2.20;;
3769;SDS011;1900;48.890;9.190;2023-02-01T06:02:50;2.77;;;2.23;;
3769;SDS011;1900;48.890;9.190;2023-02-01T06:05:16;3.53;;;1.90;;
3769;SDS011;1900;48.890;9.190;2023-02-01T06:07:42;2.30;;;1.90;;
3769;SDS011;1900;48.890;9.190;2023-02-01T06:10:08;5.73;;;2.47;;
3769;SDS011;1900;48.890;9.190;2023-02-01T06:12:34;4.83;;;2.87;;
3769;SDS011;1900;48.890;9.190;2023-02-01T06:15:00;2.10;;;1.80;;
3769;SDS011;1900;48.890;9.190;2023-02-01T06:17:26;2.13;;;1.80;;
3769;SDS011;1900;48.890;9.190;2023-02-01T06:19:51;3.33;;;2.80;;
3769;SDS011;1900;48.890;9.190;2023-02-01T06:22:17;4.50;;;3.10;;
3769;SDS011;1900;48.890;9.190;2023-02-01T06:24:43;1.93;;;1.67;;
3769;SDS011;1900;48.890;9.190;2023-02-01T06:27:08;3.67;;;2.50;;
3769;SDS011;1900;48.890;9.190;2023-02-01T06:29:34;3.10;;;2.37;;
3769;SDS011;1900;48.890;9.190;2023-02-01T06:32:00;5.10;;;2.60;;
3769;SDS011;1900;48.890;9.190;2023-02-01T06:34:26;4.17;;;2.80;;
3769;SDS011;1900;48.890;9.190;2023-02-01T06:36:52;5.93;;;2.90;;
3769;SDS011;1900;48.890;9.190;2023-02-01T06:39:20;5.23;;;3.10;;
3769;SDS011;1900;48.890;9.190;2023-02-01T06:41:46;3.93;;;2.90;;
3769;SDS011;1900;48.890;9.190;2023-02-01T06:44:13;4.00;;;3.13;;
3769;SDS011;1900;48.890;9.190;2023-02-01T06:46:39;5.40;;;2.80;;
3769;SDS011;1900;48.890;9.190;2023-02-01T06:49:05;6.83;;;3.03;;
3769;SDS011;1900;48.890;9.190;2023-02-01T06:51:30;3.47;;;2.90;;
3769;SDS011;1900;48.890;9.190;2023-02-01T06:53:56;4.73;;;3.07;;
3769;SDS011;1900;48.890;9.190;2023-02-01T06:56:22;6.00;;;3.37;;
3769;SDS011;1900;48.890;9.190;2023-02-01T06:58:48;5.07;;;3.73;;
3769;SDS011;1900;48.890;9.190;2023-02-01T07:01:15;8.13;;;3.67;;
3769;SDS011;1900;48.890;9.190;2023-02-01T07:03:41;7.43;;;4.60;;
3769;SDS011;1900;48.890;9.190;2023-02-01T07:06:07;5.90;;;3.07;;
3769;SDS011;1900;48.890;9.190;2023-02-01T07:08:36;13.77;;;3.83;;
3769;SDS011;1900;48.890;9.190;2023-02-01T07:11:03;4.47;;;3.47;;
3769;SDS011;1900;48.890;9.190;2023-02-01T07:13:29;12.43;;;4.20;;
3769;SDS011;1900;48.890;9.190;2023-02-01T07:15:57;7.27;;;4.00;;
3769;SDS011;1900;48.890;9.190;2023-02-01T07:18:24;6.17;;;3.47;;
3769;SDS011;1900;48.890;9.190;2023-02-01T07:20:50;5.23;;;3.50;;
3769;SDS011;1900;48.890;9.190;2023-02-01T07:23:16;11.97;;;4.30;;
3769;SDS011;1900;48.890;9.190;2023-02-01T07:25:42;4.67;;;3.20;;
3769;SDS011;1900;48.890;9.190;2023-02-01T07:28:08;7.90;;;4.53;;
3769;SDS011;1900;48.890;9.190;2023-02-01T07:30:33;10.37;;;3.70;;
3769;SDS011;1900;48.890;9.190;2023-02-01T07:32:59;7.73;;;3.83;;
3769;SDS011;1900;48.890;9.190;2023-02-01T07:35:26;5.37;;;4.00;;
3769;SDS011;1900;48.890;9.190;2023-02-01T07:37:52;8.67;;;4.13;;
3769;SDS011;1900;48.890;9.190;2023-02-01T07:40:18;9.20;;;4.07;;
3769;SDS011;1900;48.890;9.190;2023-02-01T07:42:48;8.90;;;4.30;;
3769;SDS011;1900;48.890;9.190;2023-02-01T07:45:13;6.17;;;4.10;;
3769;SDS011;1900;48.890;9.190;2023-02-01T07:47:40;7.27;;;4.57;;
3769;SDS011;1900;48.890;9.190;2023-02-01T07:50:06;8.53;;;4.37;;
3769;SDS011;1900;48.890;9.190;2023-02-01T07:52:32;6.97;;;4.20;;
3769;SDS011;1900;48.890;9.190;2023-02-01T07:54:58;15.13;;;4.87;;
3769;SDS011;1900;48.890;9.190;2023-02-01T07:57:23;11.93;;;5.27;;
3769;SDS011;1900;48.890;9.190;2023-02-01T07:59:49;13.40;;;4.63;;
3769;SDS011;1900;48.890;9.190;2023-02-01T08:02:37;11.10;;;4.93;;
3769;SDS011;1900;48.890;9.190;2023-02-01T08:05:03;5.33;;;3.50;;
3769;SDS011;1900;48.890;9.190;2023-02-01T08:07:30;10.23;;;4.60;;
3769;SDS011;1900;48.890;9.190;2023-02-01T08:09:56;8.27;;;3.83;;
3769;SDS011;1900;48.890;9.190;2023-02-01T08:12:22;10.77;;;4.20;;
3769;SDS011;1900;48.890;9.190;2023-02-01T08:14:47;8.57;;;3.63;;
3769;SDS011;1900;48.890;9.190;2023-02-01T08:17:13;8.17;;;3.90;;
3769;SDS011;1900;48.890;9.190;2023-02-01T08:19:38;6.33;;;3.57;;
3769;SDS011;1900;48.890;9.190;2023-02-01T08:22:04;7.10;;;3.93;;
3769;SDS011;1900;48.890;9.190;2023-02-01T08:24:32;7.63;;;3.77;;
3769;SDS011;1900;48.890;9.190;2023-02-01T08:27:00;11.90;;;4.40;;
3769;SDS011;1900;48.890;9.190;2023-02-01T08:29:27;14.00;;;3.80;;
3769;SDS011;1900;48.890;9.190;2023-02-01T08:31:53;9.00;;;4.30;;
3769;SDS011;1900;48.890;9.190;2023-02-01T08:34:19;8.37;;;3.17;;
3769;SDS011;1900;48.890;9.190;2023-02-01T08:36:45;9.10;;;4.20;;
3769;SDS011;1900;48.890;9.190;2023-02-01T08:39:10;6.63;;;3.10;;
3769;SDS011;1900;48.890;9.190;2023-02-01T08:41:37;6.90;;;3.37;;
3769;SDS011;1900;48.890;9.190;2023-02-01T08:44:03;9.90;;;3.47;;
3769;SDS011;1900;48.890;9.190;2023-02-01T08:46:29;9.03;;;3.20;;
3769;SDS011;1900;48.890;9.190;2023-02-01T08:48:55;10.33;;;4.30;;
3769;SDS011;1900;48.890;9.190;2023-02-01T08:51:21;11.00;;;4.13;;
3769;SDS011;1900;48.890;9.190;2023-02-01T08:53:48;13.10;;;3.83;;
3769;SDS011;1900;48.890;9.190;2023-02-01T08:56:15;5.60;;;3.50;;
3769;SDS011;1900;48.890;9.190;2023-02-01T08:58:41;9.63;;;3.80;;
3769;SDS011;1900;48.890;9.190;2023-02-01T09:01:09;6.90;;;3.47;;
3769;SDS011;1900;48.890;9.190;2023-02-01T09:03:36;7.90;;;3.97;;
3769;SDS011;1900;48.890;9.190;2023-02-01T09:06:06;7.07;;;3.70;;
3769;SDS011;1900;48.890;9.190;2023-02-01T09:08:34;10.80;;;3.60;;
3769;SDS011;1900;48.890;9.190;2023-02-01T09:11:01;14.67;;;5.03;;
3769;SDS011;1900;48.890;9.190;2023-02-01T09:13:28;15.97;;;4.30;;
3769;SDS011;1900;48.890;9.190;2023-02-01T09:15:54;12.83;;;3.70;;
3769;SDS011;1900;48.890;9.190;2023-02-01T09:18:20;10.67;;;4.20;;
3769;SDS011;1900;48.890;9.190;2023-02-01T09:20:45;7.23;;;3.80;;
3769;SDS011;1900;48.890;9.190;2023-02-01T09:23:11;7.17;;;2.90;;
3769;SDS011;1900;48.890;9.190;2023-02-01T09:25:37;5.67;;;2.70;;
3769;SDS011;1900;48.890;9.190;2023-02-01T09:28:04;10.53;;;3.70;;
3769;SDS011;1900;48.890;9.190;2023-02-01T09:30:31;6.67;;;4.10;;
3769;SDS011;1900;48.890;9.190;2023-02-01T09:32:58;12.57;;;3.90;;
3769;SDS011;1900;48.890;9.190;2023-02-01T09:35:24;12.27;;;4.00;;
3769;SDS011;1900;48.890;9.190;2023-02-01T09:37:50;7.07;;;3.57;;
3769;SDS011;1900;48.890;9.190;2023-02-01T09:40:17;14.37;;;4.07;;
3769;SDS011;1900;48.890;9.190;2023-02-01T09:45:33;12.53;;;4.17;;
3769;SDS011;1900;48.890;9.190;2023-02-01T09:48:17;16.00;;;4.10;;
3769;SDS011;1900;48.890;9.190;2023-02-01T09:50:50;14.37;;;4.07;;
3769;SDS011;1900;48.890;9.190;2023-02-01T09:56:07;12.83;;;3.60;;
3769;SDS011;1900;48.890;9.190;2023-02-01T09:58:45;8.97;;;4.60;;
3769;SDS011;1900;48.890;9.190;2023-02-01T10:01:21;11.40;;;4.23;;
3769;SDS011;1900;48.890;9.190;2023-02-01T10:03:49;10.77;;;3.63;;
3769;SDS011;1900;48.890;9.190;2023-02-01T10:11:36;10.23;;;3.50;;
3769;SDS011;1900;48.890;9.190;2023-02-01T10:14:48;16.17;;;3.73;;
3769;SDS011;1900;48.890;9.190;2023-02-01T10:26:17;10.67;;;3.63;;
3769;SDS011;1900;48.890;9.190;2023-02-01T10:28:52;14.73;;;4.00;;
3769;SDS011;1900;48.890;9.190;2023-02-01T10:31:23;15.80;;;3.87;;
3769;SDS011;1900;48.890;9.190;2023-02-01T10:33:58;9.90;;;3.37;;
3769;SDS011;1900;48.890;9.190;2023-02-01T10:36:31;9.30;;;3.13;;
3769;SDS011;1900;48.890;9.190;2023-02-01T10:39:00;18.83;;;4.40;;
3769;SDS011;1900;48.890;9.190;2023-02-01T10:41:36;14.80;;;4.10;;
3769;SDS011;1900;48.890;9.190;2023-02-01T10:44:05;21.40;;;4.70;;
3769;SDS011;1900;48.890;9.190;2023-02-01T10:46:36;12.80;;;3.83;;
3769;SDS011;1900;48.890;9.190;2023-02-01T10:49:02;18.73;;;4.07;;
3769;SDS011;1900;48.890;9.190;2023-02-01T10:54:19;10.40;;;4.10;;
3769;SDS011;1900;48.890;9.190;2023-02-01T10:56:46;14.77;;;4.00;;
3769;SDS011;1900;48.890;9.190;2023-02-01T10:59:17;13.10;;;3.27;;
3769;SDS011;1900;48.890;9.190;2023-02-01T11:01:46;18.03;;;3.67;;
3769;SDS011;1900;48.890;9.190;2023-02-01T11:04:18;13.40;;;4.53;;
3769;SDS011;1900;48.890;9.190;2023-02-01T11:06:46;15.60;;;4.60;;
3769;SDS011;1900;48.890;9.190;2023-02-01T11:14:15;9.27;;;4.30;;
3769;SDS011;1900;48.890;9.190;2023-02-01T11:16:47;13.60;;;4.07;;
3769;SDS011;1900;48.890;9.190;2023-02-01T11:19:15;14.83;;;3.73;;
3769;SDS011;1900;48.890;9.190;2023-02-01T11:21:42;11.43;;;4.40;;
3769;SDS011;1900;48.890;9.190;2023-02-01T11:24:45;13.13;;;3.93;;
3769;SDS011;1900;48.890;9.190;2023-02-01T11:27:05;17.93;;;4.00;;
3769;SDS011;1900;48.890;9.190;2023-02-01T11:29:38;13.23;;;3.57;;
3769;SDS011;1900;48.890;9.190;2023-02-01T11:32:11;8.80;;;3.73;;
3769;SDS011;1900;48.890;9.190;2023-02-01T11:37:54;15.83;;;4.23;;
3769;SDS011;1900;48.890;9.190;2023-02-01T11:42:53;13.83;;;3.60;;
3769;SDS011;1900;48.890;9.190;2023-02-01T11:45:30;8.77;;;4.13;;
3769;SDS011;1900;48.890;9.190;2023-02-01T11:47:58;15.60;;;3.83;;
3769;SDS011;1900;48.890;9.190;2023-02-01T11:50:30;13.37;;;3.77;;
3769;SDS011;1900;48.890;9.190;2023-02-01T11:55:56;7.30;;;3.30;;
3769;SDS011;1900;48.890;9.190;2023-02-01T12:04:19;5.20;;;2.93;;
3769;SDS011;1900;48.890;9.190;2023-02-01T12:15:03;16.30;;;3.77;;
3769;SDS011;1900;48.890;9.190;2023-02-01T12:39:23;14.50;;;3.33;;
3769;SDS011;1900;48.890;9.190;2023-02-01T12:41:57;19.20;;;4.27;;
3769;SDS011;1900;48.890;9.190;2023-02-01T12:50:17;14.93;;;3.57;;
3769;SDS011;1900;48.890;9.190;2023-02-01T12:52:51;11.80;;;3.60;;
3769;SDS011;1900;48.890;9.190;2023-02-01T12:55:24;14.47;;;3.00;;
3769;SDS011;1900;48.890;9.190;2023-02-01T12:58:12;15.53;;;4.40;;
3769;SDS011;1900;48.890;9.190;2023-02-01T13:00:46;12.10;;;4.00;;
3769;SDS011;1900;48.890;9.190;2023-02-01T13:03:39;17.17;;;5.50;;
3769;SDS011;1900;48.890;9.190;2023-02-01T13:06:26;11.80;;;3.37;;
3769;SDS011;1900;48.890;9.190;2023-02-01T13:11:31;12.50;;;4.87;;
3769;SDS011;1900;48.890;9.190;2023-02-01T13:16:42;7.83;;;3.53;;
3769;SDS011;1900;48.890;9.190;2023-02-01T13:21:37;12.17;;;3.10;;
3769;SDS011;1900;48.890;9.190;2023-02-01T13:26:57;9.60;;;3.67;;
3769;SDS011;1900;48.890;9.190;2023-02-01T13:29:23;14.73;;;3.53;;
3769;SDS011;1900;48.890;9.190;2023-02-01T13:42:53;16.37;;;3.87;;
3769;SDS011;1900;48.890;9.190;2023-02-01T13:45:29;19.67;;;3.03;;
3769;SDS011;1900;48.890;9.190;2023-02-01T13:47:58;15.57;;;2.67;;
3769;SDS011;1900;48.890;9.190;2023-02-01T13:50:27;11.23;;;3.43;;
3769;SDS011;1900;48.890;9.190;2023-02-01T13:55:55;9.63;;;3.47;;
3769;SDS011;1900;48.890;9.190;2023-02-01T13:58:41;12.23;;;3.57;;
3769;SDS011;1900;48.890;9.190;2023-02-01T14:03:49;7.90;;;2.90;;
3769;SDS011;1900;48.890;9.190;2023-02-01T14:19:31;8.93;;;2.53;;
3769;SDS011;1900;48.890;9.190;2023-02-01T14:21:59;10.63;;;3.77;;
3769;SDS011;1900;48.890;9.190;2023-02-01T14:24:49;12.70;;;3.70;;
3769;SDS011;1900;48.890;9.190;2023-02-01T14:27:20;10.73;;;3.50;;
3769;SDS011;1900;48.890;9.190;2023-02-01T14:29:59;8.57;;;3.10;;
3769;SDS011;1900;48.890;9.190;2023-02-01T14:32:36;8.97;;;3.60;;
3769;SDS011;1900;48.890;9.190;2023-02-01T14:35:08;7.73;;;3.70;;
3769;SDS011;1900;48.890;9.190;2023-02-01T14:37:46;11.03;;;3.63;;
3769;SDS011;1900;48.890;9.190;2023-02-01T14:40:23;5.93;;;3.00;;
3769;SDS011;1900;48.890;9.190;2023-02-01T14:42:51;9.93;;;4.23;;
3769;SDS011;1900;48.890;9.190;2023-02-01T14:58:18;11.23;;;3.13;;
3769;SDS011;1900;48.890;9.190;2023-02-01T15:00:57;8.27;;;3.47;;
3769;SDS011;1900;48.890;9.190;2023-02-01T15:06:23;8.33;;;3.27;;
3769;SDS011;1900;48.890;9.190;2023-02-01T15:08:51;10.57;;;3.73;;
3769;SDS011;1900;48.890;9.190;2023-02-01T15:11:20;13.00;;;3.63;;
3769;SDS011;1900;48.890;9.190;2023-02-01T15:13:49;15.00;;;5.03;;
3769;SDS011;1900;48.890;9.190;2023-02-01T15:16:19;10.90;;;3.63;;
3769;SDS011;1900;48.890;9.190;2023-02-01T15:18:47;7.60;;;3.03;;
3769;SDS011;1900;48.890;9.190;2023-02-01T15:21:17;13.17;;;5.13;;
3769;SDS011;1900;48.890;9.190;2023-02-01T15:23:47;9.03;;;3.50;;
3769;SDS011;1900;48.890;9.190;2023-02-01T15:26:26;12.87;;;3.07;;
3769;SDS011;1900;48.890;9.190;2023-02-01T15:28:53;5.00;;;3.03;;
3769;SDS011;1900;48.890;9.190;2023-02-01T15:31:34;9.80;;;3.80;;
3769;SDS011;1900;48.890;9.190;2023-02-01T15:34:02;12.07;;;4.40;;
3769;SDS011;1900;48.890;9.190;2023-02-01T15:36:28;5.50;;;3.23;;
3769;SDS011;1900;48.890;9.190;2023-02-01T15:41:56;11.90;;;3.90;;
3769;SDS011;1900;48.890;9.190;2023-02-01T15:44:39;12.03;;;3.33;;
3769;SDS011;1900;48.890;9.190;2023-02-01T15:47:15;11.20;;;3.27;;
3769;SDS011;1900;48.890;9.190;2023-02-01T15:49:43;8.43;;;3.30;;
3769;SDS011;1900;48.890;9.190;2023-02-01T15:52:25;11.57;;;4.03;;
3769;SDS011;1900;48.890;9.190;2023-02-01T15:54:59;9.53;;;2.93;;
3769;SDS011;1900;48.890;9.190;2023-02-01T15:57:29;7.73;;;3.57;;
3769;SDS011;1900;48.890;9.190;2023-02-01T16:00:43;11.67;;;3.10;;
3769;SDS011;1900;48.890;9.190;2023-02-01T16:05:38;8.77;;;3.30;;
3769;SDS011;1900;48.890;9.190;2023-02-01T16:08:19;11.47;;;3.33;;
3769;SDS011;1900;48.890;9.190;2023-02-01T16:10:48;17.30;;;3.30;;
3769;SDS011;1900;48.890;9.190;2023-02-01T16:13:16;6.17;;;2.47;;
3769;SDS011;1900;48.890;9.190;2023-02-01T16:15:44;10.90;;;2.90;;
3769;SDS011;1900;48.890;9.190;2023-02-01T16:18:10;13.03;;;3.00;;
3769;SDS011;1900;48.890;9.190;2023-02-01T16:20:37;12.13;;;2.90;;
3769;SDS011;1900;48.890;9.190;2023-02-01T16:23:05;12.83;;;4.37;;
3769;SDS011;1900;48.890;9.190;2023-02-01T16:25:31;11.33;;;3.30;;
3769;SDS011;1900;48.890;9.190;2023-02-01T16:27:57;12.10;;;3.33;;
3769;SDS011;1900;48.890;9.190;2023-02-01T16:30:23;11.63;;;3.20;;
3769;SDS011;1900;48.890;9.190;2023-02-01T16:32:56;4.97;;;2.73;;
3769;SDS011;1900;48.890;9.190;2023-02-01T16:35:27;14.00;;;2.90;;
3769;SDS011;1900;48.890;9.190;2023-02-01T16:38:00;11.07;;;3.47;;
3769;SDS011;1900;48.890;9.190;2023-02-01T16:40:40;21.87;;;4.30;;
3769;SDS011;1900;48.890;9.190;2023-02-01T16:43:11;15.80;;;3.63;;
3769;SDS011;1900;48.890;9.190;2023-02-01T16:45:42;9.13;;;3.10;;
3769;SDS011;1900;48.890;9.190;2023-02-01T16:50:55;8.37;;;3.00;;
3769;SDS011;1900;48.890;9.190;2023-02-01T16:53:22;14.83;;;4.20;;
3769;SDS011;1900;48.890;9.190;2023-02-01T16:55:49;11.50;;;2.93;;
3769;SDS011;1900;48.890;9.190;2023-02-01T16:58:17;14.57;;;3.60;;
3769;SDS011;1900;48.890;9.190;2023-02-01T17:00:43;12.93;;;3.33;;
3769;SDS011;1900;48.890;9.190;2023-02-01T17:03:13;9.47;;;3.33;;
3769;SDS011;1900;48.890;9.190;2023-02-01T17:05:42;14.33;;;3.63;;
3769;SDS011;1900;48.890;9.190;2023-02-01T17:08:12;9.10;;;4.00;;
3769;SDS011;1900;48.890;9.190;2023-02-01T17:10:43;12.03;;;3.60;;
3769;SDS011;1900;48.890;9.190;2023-02-01T17:13:11;9.40;;;3.07;;
3769;SDS011;1900;48.890;9.190;2023-02-01T17:15:39;6.63;;;2.60;;
3769;SDS011;1900;48.890;9.190;2023-02-01T17:18:05;9.57;;;3.37;;
3769;SDS011;1900;48.890;9.190;2023-02-01T17:20:33;14.67;;;3.70;;
3769;SDS011;1900;48.890;9.190;2023-02-01T17:22:59;10.70;;;2.57;;
3769;SDS011;1900;48.890;9.190;2023-02-01T17:25:24;12.03;;;3.87;;
3769;SDS011;1900;48.890;9.190;2023-02-01T17:27:52;8.83;;;3.03;;
3769;SDS011;1900;48.890;9.190;2023-02-01T17:30:18;6.27;;;2.90;;
3769;SDS011;1900;48.890;9.190;2023-02-01T17:32:43;12.50;;;3.10;;
3769;SDS011;1900;48.890;9.190;2023-02-01T17:35:19;9.03;;;3.33;;
3769;SDS011;1900;48.890;9.190;2023-02-01T17:37:47;7.70;;;3.13;;
3769;SDS011;1900;48.890;9.190;2023-02-01T17:40:13;7.27;;;3.00;;
3769;SDS011;1900;48.890;9.190;2023-02-01T17:42:39;8.93;;;3.20;;
3769;SDS011;1900;48.890;9.190;2023-02-01T17:48:03;7.60;;;2.93;;
3769;SDS011;1900;48.890;9.190;2023-02-01T17:50:29;15.77;;;4.10;;
3769;SDS011;1900;48.890;9.190;2023-02-01T17:52:57;5.97;;;2.93;;
3769;SDS011;1900;48.890;9.190;2023-02-01T17:55:23;11.43;;;3.17;;
3769;SDS011;1900;48.890;9.190;2023-02-01T17:57:50;6.60;;;3.50;;
3769;SDS011;1900;48.890;9.190;2023-02-01T18:00:16;12.97;;;3.63;;
3769;SDS011;1900;48.890;9.190;2023-02-01T18:02:43;11.67;;;3.33;;
3769;SDS011;1900;48.890;9.190;2023-02-01T18:05:20;12.33;;;3.93;;
3769;SDS011;1900;48.890;9.190;2023-02-01T18:07:52;7.33;;;3.53;;
3769;SDS011;1900;48.890;9.190;2023-02-01T18:10:18;10.50;;;4.17;;
3769;SDS011;1900;48.890;9.190;2023-02-01T18:12:44;10.60;;;3.30;;
3769;SDS011;1900;48.890;9.190;2023-02-01T18:15:21;8.83;;;3.13;;
3769;SDS011;1900;48.890;9.190;2023-02-01T18:17:47;8.30;;;3.80;;
3769;SDS011;1900;48.890;9.190;2023-02-01T18:20:14;11.20;;;4.00;;
3769;SDS011;1900;48.890;9.190;2023-02-01T18:22:47;8.23;;;3.47;;
3769;SDS011;1900;48.890;9.190;2023-02-01T18:25:17;12.73;;;4.10;;